createdAt,value
2019-04-09T00:00:16.647Z,17.4
2019-04-09T00:01:02.321Z,17.4
2019-04-09T00:01:51.876Z,17.4
2019-04-09T00:02:45.416Z,17.4
2019-04-09T00:03:33.819Z,17.4
2019-04-09T00:04:23.079Z,17.4
2019-04-09T00:05:15.446Z,17.4
2019-04-09T00:06:03.228Z,17.4
2019-04-09T00:06:56.149Z,17.4
2019-04-09T00:08:09.764Z,17.4
2019-04-09T00:08:35.745Z,17.4
2019-04-09T00:09:23.720Z,17.4
2019-04-09T00:10:15.052Z,17.4
2019-04-09T00:11:04.495Z,17.4
2019-04-09T00:11:53.959Z,17.4
2019-04-09T00:12:45.221Z,17.4
2019-04-09T00:13:34.478Z,17.4
2019-04-09T00:14:26.510Z,17.3
2019-04-09T00:15:16.097Z,17.3
2019-04-09T00:16:05.171Z,17.3
2019-04-09T00:16:54.613Z,17.3
2019-04-09T00:17:47.131Z,17.3
2019-04-09T00:18:35.794Z,17.3
2019-04-09T00:19:25.226Z,17.3
2019-04-09T00:20:17.247Z,17.3
2019-04-09T00:21:07.070Z,17.3
2019-04-09T00:21:57.156Z,17.3
2019-04-09T00:22:45.659Z,17.3
2019-04-09T00:23:36.214Z,17.3
2019-04-09T00:24:27.072Z,17.3
2019-04-09T00:25:16.290Z,17.3
2019-04-09T00:26:08.119Z,17.3
2019-04-09T00:27:11.013Z,17.3
2019-04-09T00:27:46.180Z,17.3
2019-04-09T00:28:37.566Z,17.3
2019-04-09T00:29:25.477Z,17.3
2019-04-09T00:30:23.678Z,17.3
2019-04-09T00:31:09.945Z,17.3
2019-04-09T00:31:59.865Z,17.3
2019-04-09T00:32:46.339Z,17.3
2019-04-09T00:33:38.559Z,17.3
2019-04-09T00:34:26.178Z,17.3
2019-04-09T00:35:17.362Z,17.3
2019-04-09T00:36:05.198Z,17.3
2019-04-09T00:36:56.357Z,17.3
2019-04-09T00:37:47.814Z,17.3
2019-04-09T00:38:37.346Z,17.3
2019-04-09T00:39:26.269Z,17.3
2019-04-09T00:40:18.722Z,17.3
2019-04-09T00:41:06.831Z,17.3
2019-04-09T00:41:56.661Z,17.3
2019-04-09T00:42:47.132Z,17.3
2019-04-09T00:43:37.009Z,17.3
2019-04-09T00:44:25.931Z,17.3
2019-04-09T00:45:15.506Z,17.3
2019-04-09T00:46:05.938Z,17.3
2019-04-09T00:47:02.293Z,17.3
2019-04-09T00:47:45.410Z,17.3
2019-04-09T00:48:36.595Z,17.3
2019-04-09T00:49:28.568Z,17.3
2019-04-09T00:50:19.000Z,17.3
2019-04-09T00:51:08.322Z,17.3
2019-04-09T00:51:55.883Z,17.3
2019-04-09T00:52:47.392Z,17.3
2019-04-09T00:53:41.209Z,17.3
2019-04-09T00:54:29.698Z,17.3
2019-04-09T00:55:17.333Z,17.3
2019-04-09T00:56:10.503Z,17.3
2019-04-09T00:57:22.734Z,17.3
2019-04-09T00:57:48.257Z,17.3
2019-04-09T00:58:38.771Z,17.3
2019-04-09T00:59:30.833Z,17.3
2019-04-09T01:00:22.958Z,17.3
2019-04-09T01:01:09.855Z,17.3
2019-04-09T01:01:59.014Z,17.3
2019-04-09T01:02:51.937Z,17.3
2019-04-09T01:03:40.650Z,17.3
2019-04-09T01:04:26.690Z,17.3
2019-04-09T01:05:20.067Z,17.3
2019-04-09T01:06:09.652Z,17.2
2019-04-09T01:06:59.012Z,17.3
2019-04-09T01:07:50.193Z,17.3
2019-04-09T01:08:39.752Z,17.2
2019-04-09T01:09:29.680Z,17.3
2019-04-09T01:10:19.977Z,17.2
2019-04-09T01:11:10.618Z,17.2
2019-04-09T01:12:02.157Z,17.2
2019-04-09T01:12:55.015Z,17.2
2019-04-09T01:13:40.490Z,17.2
2019-04-09T01:14:32.040Z,17.2
2019-04-09T01:15:20.251Z,17.2
2019-04-09T01:16:10.241Z,17.2
2019-04-09T01:17:00.741Z,17.2
2019-04-09T01:17:49.066Z,17.2
2019-04-09T01:18:37.988Z,17.2
2019-04-09T01:19:37.593Z,17.2
2019-04-09T01:20:21.551Z,17.2
2019-04-09T01:21:12.921Z,17.2
2019-04-09T01:22:03.855Z,17.2
2019-04-09T01:22:51.126Z,17.2
2019-04-09T01:23:42.638Z,17.2
2019-04-09T01:24:54.066Z,17.2
2019-04-09T01:25:22.024Z,17.2
2019-04-09T01:26:12.238Z,17.2
2019-04-09T01:27:31.391Z,17.2
2019-04-09T01:27:53.994Z,17.2
2019-04-09T01:28:40.825Z,17.2
2019-04-09T01:29:34.196Z,17.1
2019-04-09T01:30:22.153Z,17.1
2019-04-09T01:31:13.284Z,17.2
2019-04-09T01:32:01.073Z,17.2
2019-04-09T01:32:52.913Z,17.1
2019-04-09T01:33:41.698Z,17.1
2019-04-09T01:34:30.630Z,17.1
2019-04-09T01:35:20.391Z,17.1
2019-04-09T01:36:10.949Z,17.1
2019-04-09T01:37:01.120Z,17.1
2019-04-09T01:37:50.138Z,17.1
2019-04-09T01:38:41.265Z,17.1
2019-04-09T01:39:29.707Z,17.1
2019-04-09T01:40:20.280Z,17.1
2019-04-09T01:41:11.328Z,17.1
2019-04-09T01:42:00.252Z,17.1
2019-04-09T01:42:50.452Z,17.1
2019-04-09T01:43:39.935Z,17.1
2019-04-09T01:44:30.277Z,17.1
2019-04-09T01:45:21.789Z,17.1
2019-04-09T01:46:10.642Z,17.1
2019-04-09T01:47:01.999Z,17.1
2019-04-09T01:47:51.314Z,17.1
2019-04-09T01:48:39.267Z,17.1
2019-04-09T01:49:30.472Z,17.1
2019-04-09T01:50:21.455Z,17.1
2019-04-09T01:51:14.606Z,17.1
2019-04-09T01:52:04.069Z,17.1
2019-04-09T01:52:54.679Z,17.1
2019-04-09T01:53:44.148Z,17.1
2019-04-09T01:54:33.609Z,17.1
2019-04-09T01:55:24.967Z,17.1
2019-04-09T01:56:14.936Z,17.1
2019-04-09T01:57:03.434Z,17.1
2019-04-09T01:57:54.406Z,17.1
2019-04-09T01:58:42.850Z,17.1
2019-04-09T01:59:31.609Z,17.1
2019-04-09T02:00:25.715Z,17.1
2019-04-09T02:01:15.196Z,17.1
2019-04-09T02:02:03.398Z,17.1
2019-04-09T02:02:52.308Z,17.1
2019-04-09T02:03:43.281Z,17.1
2019-04-09T02:17:04.308Z,16.9
2019-04-09T02:19:34.353Z,16.9
2019-04-09T02:20:24.155Z,16.9
2019-04-09T02:21:22.258Z,16.9
2019-04-09T02:22:04.721Z,16.9
2019-04-09T02:22:56.605Z,16.9
2019-04-09T02:23:48.747Z,16.9
2019-04-09T02:24:34.958Z,16.9
2019-04-09T02:25:24.851Z,16.9
2019-04-09T02:26:18.561Z,16.9
2019-04-09T02:27:04.994Z,16.9
2019-04-09T02:28:02.454Z,16.9
2019-04-09T02:28:45.030Z,16.9
2019-04-09T02:29:36.289Z,16.9
2019-04-09T02:30:37.346Z,16.9
2019-04-09T02:31:24.570Z,16.9
2019-04-09T02:32:15.616Z,16.9
2019-04-09T02:33:02.027Z,16.9
2019-04-09T02:33:52.472Z,16.9
2019-04-09T02:34:47.893Z,16.9
2019-04-09T02:35:34.981Z,16.9
2019-04-09T02:36:22.288Z,16.9
2019-04-09T02:37:22.032Z,16.9
2019-04-09T02:38:01.631Z,16.9
2019-04-09T02:38:48.187Z,16.9
2019-04-09T02:39:36.687Z,16.9
2019-04-09T02:40:26.357Z,16.9
2019-04-09T02:41:15.272Z,16.9
2019-04-09T02:42:04.057Z,16.8
2019-04-09T02:42:56.067Z,16.8
2019-04-09T02:43:45.070Z,16.8
2019-04-09T02:44:36.889Z,16.8
2019-04-09T02:45:24.986Z,16.8
2019-04-09T02:46:15.689Z,16.8
2019-04-09T02:47:04.741Z,16.8
2019-04-09T02:47:55.116Z,16.8
2019-04-09T02:48:44.027Z,16.8
2019-04-09T02:49:35.073Z,16.8
2019-04-09T02:50:24.894Z,16.8
2019-04-09T02:51:16.328Z,16.8
2019-04-09T02:52:09.260Z,16.8
2019-04-09T02:52:58.871Z,16.8
2019-04-09T02:53:43.316Z,16.8
2019-04-09T02:54:36.205Z,16.8
2019-04-09T02:55:26.996Z,16.8
2019-04-09T02:56:16.729Z,16.8
2019-04-09T02:57:08.109Z,16.8
2019-04-09T02:58:12.266Z,16.8
2019-04-09T02:58:46.191Z,16.8
2019-04-09T02:59:34.685Z,16.8
2019-04-09T03:00:28.501Z,16.8
2019-04-09T03:01:19.129Z,16.8
2019-04-09T03:02:08.120Z,16.8
2019-04-09T03:02:57.499Z,16.8
2019-04-09T03:03:50.580Z,16.8
2019-04-09T03:07:17.753Z,16.7
2019-04-09T03:08:06.999Z,16.7
2019-04-09T03:08:58.333Z,16.8
2019-04-09T03:09:47.041Z,16.7
2019-04-09T03:10:35.690Z,16.8
2019-04-09T03:11:27.140Z,16.7
2019-04-09T03:12:16.834Z,16.7
2019-04-09T03:13:06.190Z,16.7
2019-04-09T03:13:59.591Z,16.7
2019-04-09T03:14:46.535Z,16.7
2019-04-09T03:15:37.044Z,16.7
2019-04-09T03:16:25.907Z,16.7
2019-04-09T03:17:16.067Z,16.6
2019-04-09T03:18:07.340Z,16.6
2019-04-09T03:18:58.652Z,16.6
2019-04-09T03:19:45.976Z,16.7
2019-04-09T03:20:38.727Z,16.6
2019-04-09T03:21:27.841Z,16.6
2019-04-09T03:22:17.772Z,16.6
2019-04-09T03:23:09.264Z,16.6
2019-04-09T03:23:59.903Z,16.6
2019-04-09T03:24:51.892Z,16.6
2019-04-09T03:25:39.331Z,16.6
2019-04-09T03:26:29.529Z,16.6
2019-04-09T03:27:18.299Z,16.6
2019-04-09T03:28:25.047Z,16.6
2019-04-09T03:28:57.487Z,16.6
2019-04-09T03:29:49.488Z,16.6
2019-04-09T03:30:50.834Z,16.6
2019-04-09T03:31:54.351Z,16.6
2019-04-09T03:32:33.192Z,16.6
2019-04-09T03:33:25.001Z,16.6
2019-04-09T03:34:15.536Z,16.6
2019-04-09T03:34:57.067Z,16.6
2019-04-09T03:35:41.084Z,16.6
2019-04-09T03:36:32.075Z,16.6
2019-04-09T03:37:24.419Z,16.6
2019-04-09T03:38:11.498Z,16.6
2019-04-09T03:39:00.709Z,16.5
2019-04-09T03:39:54.162Z,16.6
2019-04-09T03:40:41.403Z,16.6
2019-04-09T03:41:29.409Z,16.6
2019-04-09T03:42:22.943Z,16.5
2019-04-09T03:43:16.112Z,16.6
2019-04-09T03:44:02.430Z,16.5
2019-04-09T03:44:50.182Z,16.6
2019-04-09T03:45:41.435Z,16.5
2019-04-09T03:46:33.651Z,16.5
2019-04-09T03:47:21.956Z,16.5
2019-04-09T03:48:12.090Z,16.5
2019-04-09T03:49:03.070Z,16.5
2019-04-09T03:49:50.054Z,16.5
2019-04-09T03:50:42.498Z,16.5
2019-04-09T03:51:33.361Z,16.5
2019-04-09T03:52:20.240Z,16.5
2019-04-09T03:53:09.487Z,16.5
2019-04-09T03:54:01.848Z,16.5
2019-04-09T03:54:49.811Z,16.5
2019-04-09T03:55:40.656Z,16.5
2019-04-09T03:56:32.257Z,16.4
2019-04-09T03:57:19.926Z,16.5
2019-04-09T03:58:33.851Z,16.5
2019-04-09T03:59:00.747Z,16.5
2019-04-09T03:59:53.888Z,16.4
2019-04-09T04:00:43.392Z,16.4
2019-04-09T04:01:33.186Z,16.4
2019-04-09T04:02:22.097Z,16.4
2019-04-09T04:03:13.633Z,16.4
2019-04-09T04:04:01.522Z,16.4
2019-04-09T04:04:54.489Z,16.4
2019-04-09T04:05:43.379Z,16.4
2019-04-09T04:06:34.261Z,16.4
2019-04-09T04:07:22.247Z,16.4
2019-04-09T04:08:15.184Z,16.4
2019-04-09T04:09:02.925Z,16.4
2019-04-09T04:09:53.916Z,16.4
2019-04-09T04:10:44.902Z,16.4
2019-04-09T04:11:32.443Z,16.4
2019-04-09T04:12:24.087Z,16.4
2019-04-09T04:13:16.639Z,16.4
2019-04-09T04:14:05.341Z,16.4
2019-04-09T04:14:55.521Z,16.4
2019-04-09T04:15:45.096Z,16.4
2019-04-09T04:16:32.454Z,16.4
2019-04-09T04:17:22.877Z,16.4
2019-04-09T04:18:15.521Z,16.4
2019-04-09T04:19:04.244Z,16.4
2019-04-09T04:19:53.672Z,16.4
2019-04-09T04:20:45.569Z,16.4
2019-04-09T04:21:34.114Z,16.4
2019-04-09T04:22:26.942Z,16.4
2019-04-09T04:23:14.213Z,16.4
2019-04-09T04:24:04.044Z,16.3
2019-04-09T04:24:53.989Z,17.6
2019-04-09T04:25:43.290Z,18.9
2019-04-09T04:26:36.771Z,20
2019-04-09T04:27:23.873Z,20.9
2019-04-09T04:28:42.976Z,21.7
2019-04-09T04:29:08.431Z,22.5
2019-04-09T04:29:57.780Z,22.8
2019-04-09T04:30:46.269Z,23.1
2019-04-09T04:31:33.856Z,23.4
2019-04-09T04:32:25.225Z,23.6
2019-04-09T04:33:17.126Z,23.9
2019-04-09T04:34:06.535Z,24.1
2019-04-09T04:34:55.229Z,24.1
2019-04-09T04:35:45.710Z,23.6
2019-04-09T04:36:37.002Z,23
2019-04-09T04:37:25.416Z,22.6
2019-04-09T04:38:15.965Z,22.3
2019-04-09T04:39:04.941Z,22.1
2019-04-09T04:39:55.481Z,21.9
2019-04-09T04:40:45.967Z,21.8
2019-04-09T04:41:34.825Z,21.6
2019-04-09T04:42:24.291Z,21.5
2019-04-09T04:43:16.940Z,21.4
2019-04-09T04:44:02.393Z,21.3
2019-04-09T04:44:57.384Z,21.3
2019-04-09T04:45:44.997Z,21.2
2019-04-09T04:47:27.868Z,21.1
2019-04-09T04:48:15.323Z,21
2019-04-09T04:49:07.192Z,20.9
2019-04-09T04:49:58.464Z,20.9
2019-04-09T04:50:45.007Z,20.8
2019-04-09T04:51:35.005Z,20.8
2019-04-09T04:52:27.886Z,20.7
2019-04-09T04:53:16.831Z,20.6
2019-04-09T04:54:08.257Z,20.6
2019-04-09T04:54:57.615Z,20.6
2019-04-09T04:55:47.077Z,20.5
2019-04-09T04:56:37.675Z,20.4
2019-04-09T04:57:32.610Z,20.4
2019-04-09T04:58:18.501Z,20.3
2019-04-09T04:59:11.639Z,20.3
2019-04-09T04:59:58.770Z,20.3
2019-04-09T05:00:49.203Z,20.2
2019-04-09T05:01:38.577Z,20.1
2019-04-09T05:02:29.429Z,20.1
2019-04-09T05:03:17.221Z,20.1
2019-04-09T05:04:06.511Z,20
2019-04-09T05:05:06.464Z,19.9
2019-04-09T05:05:45.551Z,19.9
2019-04-09T05:06:36.759Z,19.9
2019-04-09T05:07:51.036Z,19.8
2019-04-09T05:08:15.408Z,19.8
2019-04-09T05:09:08.856Z,19.8
2019-04-09T05:09:55.494Z,19.7
2019-04-09T05:10:52.927Z,19.7
2019-04-09T05:11:38.954Z,19.6
2019-04-09T05:12:30.111Z,19.6
2019-04-09T05:13:20.668Z,19.6
2019-04-09T05:14:09.989Z,19.5
2019-04-09T05:14:57.370Z,19.5
2019-04-09T05:15:52.631Z,19.4
2019-04-09T05:16:36.811Z,19.4
2019-04-09T05:17:30.573Z,19.4
2019-04-09T05:18:20.069Z,19.3
2019-04-09T05:19:09.740Z,19.3
2019-04-09T05:19:59.172Z,19.3
2019-04-09T05:20:49.795Z,19.4
2019-04-09T05:21:40.360Z,20.2
2019-04-09T05:23:17.983Z,22
2019-04-09T05:24:10.005Z,22.5
2019-04-09T05:25:00.262Z,22.9
2019-04-09T05:25:49.498Z,23.3
2019-04-09T05:26:40.068Z,23.6
2019-04-09T05:27:29.215Z,23.9
2019-04-09T05:28:21.190Z,24.1
2019-04-09T05:29:24.605Z,24.4
2019-04-09T05:30:00.304Z,23.8
2019-04-09T05:30:48.875Z,23.3
2019-04-09T05:31:37.141Z,22.9
2019-04-09T05:32:27.685Z,22.6
2019-04-09T05:33:20.779Z,22.3
2019-04-09T05:34:09.733Z,22.1
2019-04-09T05:35:03.089Z,21.9
2019-04-09T05:35:49.306Z,21.7
2019-04-09T05:36:42.729Z,21.6
2019-04-09T05:37:30.975Z,21.5
2019-04-09T05:38:20.224Z,21.4
2019-04-09T05:39:14.222Z,21.3
2019-04-09T05:40:01.544Z,21.3
2019-04-09T05:40:52.963Z,21.2
2019-04-09T05:43:23.734Z,21
2019-04-09T05:44:10.448Z,20.9
2019-04-09T05:45:01.843Z,20.9
2019-04-09T05:45:49.339Z,20.9
2019-04-09T05:46:40.726Z,20.8
2019-04-09T05:47:30.081Z,20.8
2019-04-09T05:48:21.318Z,20.7
2019-04-09T05:49:10.190Z,20.6
2019-04-09T05:49:58.537Z,20.6
2019-04-09T05:50:48.644Z,20.5
2019-04-09T05:51:40.476Z,20.4
2019-04-09T05:52:27.551Z,20.4
2019-04-09T05:53:20.496Z,20.4
2019-04-09T05:54:13.616Z,20.3
2019-04-09T05:55:02.088Z,20.3
2019-04-09T05:55:53.458Z,20.3
2019-04-09T05:56:41.075Z,20.2
2019-04-09T05:57:30.412Z,20.2
2019-04-09T05:58:21.378Z,20.1
2019-04-09T05:59:27.541Z,20.1
2019-04-09T06:00:01.906Z,20
2019-04-09T06:00:54.637Z,20
2019-04-09T06:01:41.263Z,19.9
2019-04-09T06:02:34.379Z,19.9
2019-04-09T06:05:18.533Z,19.8
2019-04-09T06:06:09.190Z,19.8
2019-04-09T06:06:57.658Z,19.7
2019-04-09T06:07:47.228Z,19.7
2019-04-09T06:08:40.975Z,19.6
2019-04-09T06:09:29.072Z,19.6
2019-04-09T06:10:18.153Z,19.6
2019-04-09T06:11:10.276Z,19.5
2019-04-09T06:11:58.270Z,19.5
2019-04-09T06:12:47.671Z,19.4
2019-04-09T06:13:54.929Z,19.4
2019-04-09T06:14:27.869Z,19.4
2019-04-09T06:15:19.527Z,19.3
2019-04-09T06:16:10.412Z,19.3
2019-04-09T06:16:58.972Z,19.3
2019-04-09T06:18:03.232Z,19.3
2019-04-09T06:18:39.020Z,19.2
2019-04-09T06:19:28.734Z,19.2
2019-04-09T06:20:21.059Z,19.1
2019-04-09T06:21:45.366Z,19.1
2019-04-09T06:22:05.859Z,19.1
2019-04-09T06:22:54.909Z,19
2019-04-09T06:23:58.446Z,19
2019-04-09T06:24:35.269Z,18.9
2019-04-09T06:25:43.907Z,18.9
2019-04-09T06:26:19.853Z,18.9
2019-04-09T06:27:05.068Z,18.9
2019-04-09T06:27:53.396Z,18.8
2019-04-09T06:28:46.677Z,18.8
2019-04-09T06:29:54.164Z,18.8
2019-04-09T06:30:27.340Z,18.8
2019-04-09T06:33:43.850Z,18.6
2019-04-09T06:34:32.700Z,18.6
2019-04-09T06:35:24.652Z,18.6
2019-04-09T06:36:16.364Z,18.6
2019-04-09T06:37:04.420Z,18.5
2019-04-09T06:37:55.043Z,18.5
2019-04-09T06:38:44.292Z,18.4
2019-04-09T06:39:34.750Z,18.4
2019-04-09T06:40:23.814Z,18.4
2019-04-09T06:41:15.574Z,18.4
2019-04-09T06:42:01.886Z,18.4
2019-04-09T06:42:53.170Z,18.4
2019-04-09T06:43:42.239Z,18.3
2019-04-09T06:44:34.975Z,18.3
2019-04-09T06:45:22.221Z,18.3
2019-04-09T06:46:15.628Z,18.3
2019-04-09T06:47:04.899Z,18.3
2019-04-09T06:47:53.711Z,18.2
2019-04-09T06:48:44.336Z,18.2
2019-04-09T06:49:34.515Z,18.2
2019-04-09T06:50:25.427Z,18.1
2019-04-09T06:51:26.800Z,18.1
2019-04-09T06:52:16.444Z,18.1
2019-04-09T06:53:01.202Z,18.1
2019-04-09T06:53:51.411Z,18.1
2019-04-09T06:54:59.385Z,18.1
2019-04-09T06:55:30.837Z,18
2019-04-09T06:56:23.695Z,18
2019-04-09T06:57:15.495Z,18
2019-04-09T06:58:07.201Z,18
2019-04-09T06:58:52.726Z,17.9
2019-04-09T06:59:50.581Z,17.9
2019-04-09T07:00:36.710Z,17.9
2019-04-09T07:01:20.928Z,17.9
2019-04-09T07:02:11.795Z,17.9
2019-04-09T07:03:01.315Z,17.9
2019-04-09T07:05:18.314Z,17.8
2019-04-09T07:06:15.431Z,17.8
2019-04-09T07:06:57.567Z,17.8
2019-04-09T07:07:45.787Z,17.8
2019-04-09T07:08:39.898Z,17.8
2019-04-09T07:09:32.076Z,17.7
2019-04-09T07:10:20.876Z,17.7
2019-04-09T07:11:32.778Z,17.7
2019-04-09T07:11:59.621Z,17.6
2019-04-09T07:12:45.780Z,17.6
2019-04-09T07:13:38.350Z,17.6
2019-04-09T07:14:29.117Z,17.6
2019-04-09T07:15:19.408Z,17.6
2019-04-09T07:16:08.138Z,17.6
2019-04-09T07:17:00.970Z,17.6
2019-04-09T07:17:51.938Z,17.6
2019-04-09T07:18:40.700Z,17.6
2019-04-09T07:19:31.255Z,17.6
2019-04-09T07:20:22.374Z,17.5
2019-04-09T07:21:08.623Z,17.5
2019-04-09T07:21:58.695Z,17.5
2019-04-09T07:22:54.897Z,17.5
2019-04-09T07:23:41.631Z,17.4
2019-04-09T07:24:28.519Z,17.4
2019-04-09T07:25:20.012Z,17.4
2019-04-09T07:26:22.187Z,17.4
2019-04-09T07:27:06.217Z,17.4
2019-04-09T07:27:53.885Z,17.4
2019-04-09T07:28:40.066Z,17.4
2019-04-09T07:30:28.230Z,17.4
2019-04-09T07:30:47.904Z,17.3
2019-04-09T07:31:47.407Z,17.3
2019-04-09T07:32:24.152Z,17.3
2019-04-09T07:33:30.523Z,17.3
2019-04-09T07:34:02.204Z,17.3
2019-04-09T07:35:04.299Z,17.3
2019-04-09T07:35:48.996Z,17.3
2019-04-09T07:36:42.360Z,17.3
2019-04-09T07:37:26.834Z,17.2
2019-04-09T07:38:22.536Z,17.2
2019-04-09T07:39:10.213Z,17.2
2019-04-09T07:40:04.583Z,17.2
2019-04-09T07:40:51.059Z,17.2
2019-04-09T07:41:43.848Z,17.2
2019-04-09T07:42:28.571Z,17.1
2019-04-09T07:43:28.641Z,17.1
2019-04-09T07:44:19.314Z,17.1
2019-04-09T07:45:02.448Z,17.1
2019-04-09T07:45:55.543Z,17.1
2019-04-09T07:46:36.816Z,17.1
2019-04-09T07:47:41.782Z,17.1
2019-04-09T07:48:15.931Z,17.1
2019-04-09T07:49:17.279Z,17.1
2019-04-09T07:50:07.864Z,17.1
2019-04-09T07:50:54.208Z,17.1
2019-04-09T07:55:06.647Z,16.9
2019-04-09T07:55:44.473Z,16.9
2019-04-09T07:56:45.558Z,16.9
2019-04-09T07:57:26.178Z,16.9
2019-04-09T07:58:25.122Z,16.9
2019-04-09T07:59:05.900Z,16.9
2019-04-09T08:00:47.721Z,16.9
2019-04-09T08:01:10.392Z,16.9
2019-04-09T08:02:06.780Z,16.9
2019-04-09T08:02:53.179Z,16.9
2019-04-09T08:03:51.221Z,16.9
2019-04-09T08:04:51.168Z,16.9
2019-04-09T08:05:26.245Z,16.8
2019-04-09T08:06:14.338Z,16.9
2019-04-09T08:07:19.380Z,16.8
2019-04-09T08:07:48.040Z,16.8
2019-04-09T08:08:46.437Z,16.8
2019-04-09T08:09:33.415Z,16.8
2019-04-09T08:10:20.420Z,16.8
2019-04-09T08:11:20.281Z,16.8
2019-04-09T08:11:58.083Z,16.8
2019-04-09T08:13:03.390Z,16.8
2019-04-09T08:13:54.486Z,16.8
2019-04-09T08:14:39.573Z,16.8
2019-04-09T08:15:24.153Z,16.8
2019-04-09T08:16:18.881Z,16.8
2019-04-09T08:17:05.235Z,16.8
2019-04-09T08:18:33.675Z,16.8
2019-04-09T08:18:52.100Z,16.8
2019-04-09T08:19:43.683Z,16.8
2019-04-09T08:20:48.284Z,16.8
2019-04-09T08:21:22.796Z,16.8
2019-04-09T08:22:20.363Z,16.8
2019-04-09T08:23:04.262Z,16.7
2019-04-09T08:24:08.017Z,16.7
2019-04-09T08:24:42.366Z,16.7
2019-04-09T08:25:38.866Z,16.7
2019-04-09T08:26:27.834Z,16.7
2019-04-09T08:27:19.479Z,16.7
2019-04-09T08:28:03.525Z,16.7
2019-04-09T08:29:01.382Z,16.7
2019-04-09T08:29:49.560Z,16.7
2019-04-09T08:30:57.438Z,16.7
2019-04-09T08:31:37.361Z,16.7
2019-04-09T08:32:46.391Z,16.6
2019-04-09T08:33:04.911Z,16.7
2019-04-09T08:34:03.127Z,16.6
2019-04-09T08:34:48.573Z,16.7
2019-04-09T08:35:46.037Z,16.6
2019-04-09T08:36:28.902Z,16.6
2019-04-09T08:37:22.836Z,16.6
2019-04-09T08:38:17.966Z,16.6
2019-04-09T08:39:04.675Z,16.6
2019-04-09T08:39:55.881Z,16.6
2019-04-09T08:40:36.196Z,16.6
2019-04-09T08:41:38.001Z,16.6
2019-04-09T08:42:17.445Z,16.6
2019-04-09T08:43:17.363Z,16.6
2019-04-09T08:44:07.996Z,16.6
2019-04-09T08:44:55.034Z,16.6
2019-04-09T08:45:40.861Z,16.6
2019-04-09T08:46:34.921Z,16.6
2019-04-09T08:47:19.643Z,16.6
2019-04-09T08:48:18.433Z,16.6
2019-04-09T08:49:02.548Z,16.6
2019-04-09T08:50:01.778Z,16.6
2019-04-09T08:50:45.097Z,16.5
2019-04-09T08:51:27.285Z,16.6
2019-04-09T08:52:26.066Z,16.6
2019-04-09T08:53:06.678Z,16.6
2019-04-09T08:54:02.996Z,16.5
2019-04-09T08:54:45.604Z,16.5
2019-04-09T08:55:50.015Z,16.5
2019-04-09T08:56:27.831Z,16.5
2019-04-09T08:57:27.880Z,16.5
2019-04-09T08:58:06.184Z,16.5
2019-04-09T08:59:07.120Z,16.5
2019-04-09T08:59:47.085Z,16.5
2019-04-09T09:03:02.331Z,16.5
2019-04-09T09:04:20.413Z,16.4
2019-04-09T09:05:52.772Z,16.5
2019-04-09T09:06:33.516Z,16.4
2019-04-09T09:07:43.289Z,16.4
2019-04-09T09:08:23.517Z,16.4
2019-04-09T09:09:17.934Z,16.4
2019-04-09T09:10:07.519Z,16.4
2019-04-09T09:10:41.626Z,16.4
2019-04-09T09:11:41.319Z,16.4
2019-04-09T09:12:25.082Z,16.4
2019-04-09T09:13:27.559Z,16.4
2019-04-09T09:14:02.486Z,16.4
2019-04-09T09:14:50.312Z,16.4
2019-04-09T09:15:40.134Z,16.4
2019-04-09T09:16:43.551Z,16.4
2019-04-09T09:17:27.329Z,16.4
2019-04-09T09:18:11.750Z,16.4
2019-04-09T09:19:09.356Z,16.4
2019-04-09T09:19:57.295Z,16.4
2019-04-09T09:20:58.196Z,16.4
2019-04-09T09:21:59.322Z,16.4
2019-04-09T09:22:57.002Z,16.4
2019-04-09T09:23:29.633Z,16.4
2019-04-09T09:24:29.281Z,16.4
2019-04-09T09:25:11.608Z,16.4
2019-04-09T09:26:09.901Z,16.4
2019-04-09T09:26:52.492Z,16.4
2019-04-09T09:27:48.920Z,16.4
2019-04-09T09:28:32.182Z,16.4
2019-04-09T09:29:23.399Z,16.4
2019-04-09T09:30:11.623Z,16.4
2019-04-09T09:31:46.884Z,16.4
2019-04-09T09:32:11.754Z,16.4
2019-04-09T09:32:57.896Z,16.4
2019-04-09T09:34:08.500Z,16.3
2019-04-09T09:34:39.036Z,16.3
2019-04-09T09:35:30.477Z,16.3
2019-04-09T09:36:25.142Z,16.3
2019-04-09T09:37:08.752Z,16.3
2019-04-09T09:38:11.665Z,16.3
2019-04-09T09:38:57.141Z,16.3
2019-04-09T09:39:51.307Z,16.3
2019-04-09T09:40:34.765Z,16.3
2019-04-09T09:41:40.654Z,16.3
2019-04-09T09:42:05.203Z,16.3
2019-04-09T09:42:54.837Z,16.3
2019-04-09T09:43:54.804Z,16.3
2019-04-09T09:44:56.428Z,16.3
2019-04-09T09:45:34.248Z,16.3
2019-04-09T09:46:19.969Z,16.3
2019-04-09T09:47:17.673Z,16.3
2019-04-09T09:48:09.634Z,16.3
2019-04-09T09:49:02.365Z,16.3
2019-04-09T09:49:44.155Z,16.3
2019-04-09T09:50:39.984Z,16.3
2019-04-09T09:51:22.117Z,16.3
2019-04-09T09:52:05.275Z,16.3
2019-04-09T09:53:09.379Z,16.3
2019-04-09T09:53:45.943Z,16.3
2019-04-09T09:54:41.179Z,16.3
2019-04-09T09:55:34.813Z,16.3
2019-04-09T09:56:20.943Z,16.3
2019-04-09T09:57:19.017Z,16.3
2019-04-09T09:57:58.627Z,16.3
2019-04-09T09:58:54.569Z,16.3
2019-04-09T09:59:47.574Z,16.3
2019-04-09T10:00:31.606Z,16.3
2019-04-09T10:02:14.178Z,16.3
2019-04-09T10:02:40.078Z,16.3
2019-04-09T10:03:26.229Z,16.3
2019-04-09T10:06:47.816Z,16.2
2019-04-09T10:07:08.679Z,16.3
2019-04-09T10:08:37.289Z,16.3
2019-04-09T10:09:01.124Z,16.3
2019-04-09T10:09:49.051Z,16.3
2019-04-09T10:10:41.188Z,16.2
2019-04-09T10:11:23.722Z,16.3
2019-04-09T10:13:07.313Z,16.2
2019-04-09T10:13:34.332Z,16.3
2019-04-09T10:14:16.498Z,16.3
2019-04-09T10:15:28.474Z,16.3
2019-04-09T10:16:03.058Z,16.2
2019-04-09T10:17:05.410Z,16.2
2019-04-09T10:18:05.211Z,16.2
2019-04-09T10:18:23.869Z,16.2
2019-04-09T10:19:41.435Z,16.2
2019-04-09T10:20:14.432Z,16.2
2019-04-09T10:21:02.984Z,16.2
2019-04-09T10:22:02.919Z,16.2
2019-04-09T10:22:39.867Z,16.2
2019-04-09T10:23:38.185Z,16.2
2019-04-09T10:24:57.020Z,16.2
2019-04-09T10:25:16.441Z,16.2
2019-04-09T10:26:26.040Z,16.2
2019-04-09T10:27:00.560Z,16.2
2019-04-09T10:27:59.955Z,16.2
2019-04-09T10:28:43.890Z,16.2
2019-04-09T10:29:39.181Z,16.2
2019-04-09T10:30:23.674Z,16.2
2019-04-09T10:31:52.628Z,16.2
2019-04-09T10:32:19.679Z,16.2
2019-04-09T10:33:02.550Z,16.2
2019-04-09T10:34:01.409Z,16.2
2019-04-09T10:34:53.775Z,16.2
2019-04-09T10:35:38.281Z,16.2
2019-04-09T10:36:25.589Z,16.1
2019-04-09T10:37:24.373Z,16.2
2019-04-09T10:38:10.335Z,16.1
2019-04-09T10:38:54.323Z,16.2
2019-04-09T10:39:54.354Z,16.1
2019-04-09T10:40:34.491Z,16.2
2019-04-09T10:42:15.326Z,16.2
2019-04-09T10:42:41.260Z,16.2
2019-04-09T10:43:35.214Z,16.1
2019-04-09T10:44:20.804Z,16.1
2019-04-09T10:45:11.100Z,16.1
2019-04-09T10:46:00.951Z,16.1
2019-04-09T10:46:52.079Z,16.1
2019-04-09T10:47:32.875Z,16.1
2019-04-09T10:48:29.714Z,16.1
2019-04-09T10:49:29.760Z,16.1
2019-04-09T10:50:11.509Z,16.1
2019-04-09T10:50:59.018Z,16.1
2019-04-09T10:51:52.004Z,16.1
2019-04-09T10:52:44.305Z,16.1
2019-04-09T10:53:37.191Z,16.1
2019-04-09T10:54:26.179Z,16.1
2019-04-09T10:55:03.830Z,16.1
2019-04-09T10:56:05.587Z,16.1
2019-04-09T10:56:52.857Z,16.1
2019-04-09T10:57:32.698Z,16.1
2019-04-09T10:58:38.783Z,16.1
2019-04-09T10:59:18.549Z,16.1
2019-04-09T11:00:14.288Z,16.1
2019-04-09T11:00:58.722Z,16.1
2019-04-09T11:02:10.136Z,16.2
2019-04-09T11:02:47.718Z,16.2
2019-04-09T11:03:24.333Z,16.2
2019-04-09T11:04:22.808Z,16.1
2019-04-09T11:05:05.271Z,16.1
2019-04-09T11:06:10.176Z,16.2
2019-04-09T11:06:43.248Z,16.2
2019-04-09T11:07:50.383Z,16.1
2019-04-09T11:08:23.601Z,16.1
2019-04-09T11:09:14.516Z,16.1
2019-04-09T11:10:34.595Z,16.1
2019-04-09T11:10:59.870Z,16.1
2019-04-09T11:12:00.484Z,16.1
2019-04-09T11:12:42.682Z,16.1
2019-04-09T11:13:38.308Z,16.1
2019-04-09T11:14:24.908Z,16.1
2019-04-09T11:15:24.420Z,16.1
2019-04-09T11:16:14.895Z,16.1
2019-04-09T11:16:49.340Z,16.1
2019-04-09T11:17:54.072Z,16.1
2019-04-09T11:18:36.425Z,16.1
2019-04-09T11:19:33.208Z,16.1
2019-04-09T11:20:15.598Z,16.1
2019-04-09T11:21:06.458Z,16.1
2019-04-09T11:21:59.819Z,16.1
2019-04-09T11:22:38.551Z,16.1
2019-04-09T11:23:39.471Z,16.1
2019-04-09T11:24:20.344Z,16.1
2019-04-09T11:25:18.910Z,16.1
2019-04-09T11:26:02.022Z,16.1
2019-04-09T11:27:05.578Z,16.1
2019-04-09T11:27:45.944Z,16.1
2019-04-09T11:28:26.188Z,16.1
2019-04-09T11:29:19.187Z,16.1
2019-04-09T11:30:11.958Z,16.1
2019-04-09T11:30:59.767Z,16.1
2019-04-09T11:32:24.826Z,16.1
2019-04-09T11:32:42.486Z,16.1
2019-04-09T11:33:32.767Z,16.1
2019-04-09T11:34:23.834Z,16.1
2019-04-09T11:35:11.991Z,16.1
2019-04-09T11:36:03.122Z,16.1
2019-04-09T11:36:53.868Z,16.1
2019-04-09T11:37:44.741Z,16.1
2019-04-09T11:38:33.106Z,16.1
2019-04-09T11:39:23.594Z,16.1
2019-04-09T11:40:16.673Z,16.1
2019-04-09T11:41:06.635Z,16.1
2019-04-09T11:41:54.934Z,16.1
2019-04-09T11:42:43.718Z,16.1
2019-04-09T11:43:33.091Z,16.1
2019-04-09T11:44:22.846Z,16.1
2019-04-09T11:45:12.140Z,16.1